Time;durP1;ratioP1;P1;durP2;ratioP2;P2;SDS_P1;SDS_P2;PMS_P1;PMS_P2;Temp;Humidity;BMP_temperature;BMP_pressure;BME280_temperature;BME280_humidity;BME280_pressure;Samples;Min_cycle;Max_cycle;Signal;HPM_P1;HPM_P2
2022/08/05 00:02:49;;;;;;;4.35;2.47;;;;;;;;;;8407919;27;20146;-70
2022/08/05 00:06:49;;;;;;;12.98;2.53;;;;;;;;;;8408226;28;20585;-70
2022/08/05 00:10:49;;;;;;;3.95;2.47;;;;;;;;;;8405885;28;20138;-71
2022/08/05 00:14:49;;;;;;;9.65;3.22;;;;;;;;;;8409685;28;20037;-71
2022/08/05 00:18:49;;;;;;;4.35;2.80;;;;;;;;;;8405730;28;20088;-70
2022/08/05 00:22:50;;;;;;;4.03;2.40;;;;;;;;;;8407797;28;20373;-71
2022/08/05 00:26:51;;;;;;;8.02;2.70;;;;;;;;;;8409810;28;20031;-71
2022/08/05 00:30:51;;;;;;;7.45;3.30;;;;;;;;;;8406808;28;20039;-71
2022/08/05 00:34:51;;;;;;;7.05;2.95;;;;;;;;;;8409872;28;20120;-71
2022/08/05 00:38:51;;;;;;;8.98;3.05;;;;;;;;;;8411729;28;20751;-71
2022/08/05 00:42:51;;;;;;;12.00;2.95;;;;;;;;;;8408568;28;20127;-70
2022/08/05 00:46:52;;;;;;;5.97;3.08;;;;;;;;;;8406687;28;20059;-71
2022/08/05 00:50:52;;;;;;;4.05;2.72;;;;;;;;;;8407584;28;20027;-71
2022/08/05 00:54:52;;;;;;;5.90;3.10;;;;;;;;;;8410622;28;20028;-70
2022/08/05 00:58:52;;;;;;;3.97;2.80;;;;;;;;;;8387255;28;20439;-71
2022/08/05 01:02:53;;;;;;;5.32;3.05;;;;;;;;;;8407744;28;20044;-70
2022/08/05 01:06:53;;;;;;;6.78;3.10;;;;;;;;;;8411324;28;20019;-70
2022/08/05 01:11:11;;;;;;;5.50;3.10;;;;;;;;;;8409768;28;20047;-71
2022/08/05 01:15:12;;;;;;;5.40;3.33;;;;;;;;;;8408180;28;20984;-71
2022/08/05 01:19:22;;;;;;;5.53;3.47;;;;;;;;;;8410160;28;20019;-71
2022/08/05 01:23:28;;;;;;;8.00;3.10;;;;;;;;;;8410030;28;20515;-70
2022/08/05 01:27:47;;;;;;;5.78;2.97;;;;;;;;;;8411522;28;20536;-71
2022/08/05 01:31:49;;;;;;;6.85;3.53;;;;;;;;;;8411834;28;20039;-71
2022/08/05 01:35:52;;;;;;;4.80;2.92;;;;;;;;;;8391211;28;20031;-70
2022/08/05 01:39:53;;;;;;;6.80;3.33;;;;;;;;;;8416017;28;20036;-70
2022/08/05 01:43:55;;;;;;;7.68;3.35;;;;;;;;;;8412018;28;20658;-70
2022/08/05 01:47:55;;;;;;;6.03;3.10;;;;;;;;;;8411743;27;20074;-71
2022/08/05 01:51:57;;;;;;;4.85;2.63;;;;;;;;;;8412906;27;20528;-71
2022/08/05 01:55:58;;;;;;;6.80;2.95;;;;;;;;;;8412889;28;20947;-70
2022/08/05 02:00:00;;;;;;;5.97;3.20;;;;;;;;;;8412944;28;20600;-70
2022/08/05 02:04:01;;;;;;;8.02;3.20;;;;;;;;;;8411323;27;20039;-70
2022/08/05 02:08:02;;;;;;;7.88;3.30;;;;;;;;;;8413376;28;20453;-70
2022/08/05 02:12:05;;;;;;;5.28;2.50;;;;;;;;;;8412449;28;20488;-69
2022/08/05 02:16:05;;;;;;;;;;;;;;;;;;8411013;28;20039;-70
2022/08/05 02:20:07;;;;;;;7.38;2.40;;;;;;;;;;8410381;28;20093;-70
2022/08/05 02:24:09;;;;;;;6.03;2.28;;;;;;;;;;8411371;28;20198;-70
2022/08/05 02:28:10;;;;;;;7.03;2.40;;;;;;;;;;8409012;28;20104;-70
2022/08/05 02:32:11;;;;;;;5.32;2.17;;;;;;;;;;8411153;28;20048;-70
2022/08/05 02:36:12;;;;;;;2.92;1.83;;;;;;;;;;8409978;28;20516;-70
2022/08/05 02:40:15;;;;;;;2.67;1.90;;;;;;;;;;8410250;28;20058;-70
2022/08/05 02:44:16;;;;;;;2.40;1.80;;;;;;;;;;8410847;28;20031;-70
2022/08/05 02:48:17;;;;;;;2.97;1.88;;;;;;;;;;8410861;28;20028;-71
2022/08/05 02:52:17;;;;;;;5.10;2.20;;;;;;;;;;8409269;28;20031;-70
2022/08/05 02:56:18;;;;;;;8.73;2.17;;;;;;;;;;8409376;28;20031;-70
2022/08/05 03:00:18;;;;;;;4.30;2.00;;;;;;;;;;8408591;28;20457;-70
2022/08/05 03:04:19;;;;;;;3.08;1.75;;;;;;;;;;8409203;28;20373;-70
2022/08/05 03:08:19;;;;;;;2.97;2.00;;;;;;;;;;8410551;28;20054;-70
2022/08/05 03:12:33;;;;;;;3.47;2.20;;;;;;;;;;8405665;28;20146;-70
2022/08/05 03:16:33;;;;;;;5.85;2.28;;;;;;;;;;8409872;28;20126;-69
2022/08/05 03:20:33;;;;;;;5.45;2.47;;;;;;;;;;8406187;27;20123;-69
2022/08/05 03:24:33;;;;;;;4.18;2.42;;;;;;;;;;8407851;28;20023;-69
2022/08/05 03:28:34;;;;;;;4.30;2.33;;;;;;;;;;8408786;28;20021;-69
2022/08/05 03:32:35;;;;;;;6.38;2.65;;;;;;;;;;8410538;28;20111;-69
2022/08/05 03:36:35;;;;;;;9.32;2.67;;;;;;;;;;8410949;28;20172;-70
2022/08/05 03:40:38;;;;;;;4.35;2.17;;;;;;;;;;8409123;28;20027;-69
2022/08/05 03:44:38;;;;;;;3.25;2.22;;;;;;;;;;8411827;28;20705;-70
2022/08/05 03:48:38;;;;;;;2.55;1.90;;;;;;;;;;8410183;28;20034;-69
2022/08/05 03:52:49;;;;;;;7.03;2.30;;;;;;;;;;8408906;27;20384;-70
2022/08/05 03:56:49;;;;;;;5.40;2.30;;;;;;;;;;8408469;28;20598;-70
2022/08/05 04:00:50;;;;;;;3.78;2.20;;;;;;;;;;8406599;28;20066;-70
2022/08/05 04:04:51;;;;;;;6.53;2.20;;;;;;;;;;8409646;28;20645;-69
2022/08/05 04:08:51;;;;;;;4.68;2.30;;;;;;;;;;8409680;28;20023;-70
2022/08/05 04:12:52;;;;;;;5.70;2.15;;;;;;;;;;8407082;28;20137;-70
2022/08/05 04:16:52;;;;;;;7.95;2.00;;;;;;;;;;8407353;28;20051;-70
2022/08/05 04:20:53;;;;;;;7.20;2.17;;;;;;;;;;8407928;28;20035;-70
2022/08/05 04:24:54;;;;;;;6.25;2.33;;;;;;;;;;8409348;28;20020;-69
2022/08/05 04:28:54;;;;;;;7.03;2.35;;;;;;;;;;8409610;28;20569;-70
2022/08/05 04:32:54;;;;;;;2.83;2.10;;;;;;;;;;8406875;28;20039;-70
2022/08/05 04:36:54;;;;;;;8.30;2.50;;;;;;;;;;8408345;28;20031;-69
2022/08/05 04:40:55;;;;;;;3.58;2.22;;;;;;;;;;8410150;28;20058;-70
2022/08/05 04:44:55;;;;;;;7.00;2.33;;;;;;;;;;8409042;28;20782;-69
2022/08/05 04:48:55;;;;;;;4.90;2.50;;;;;;;;;;8406255;28;20226;-69
2022/08/05 04:52:55;;;;;;;4.18;2.30;;;;;;;;;;8413081;28;20028;-69
2022/08/05 04:56:55;;;;;;;8.57;2.38;;;;;;;;;;8416103;28;20034;-69
2022/08/05 05:00:55;;;;;;;8.38;2.40;;;;;;;;;;8415380;28;20393;-69
2022/08/05 05:04:56;;;;;;;3.15;2.20;;;;;;;;;;8414259;28;20027;-70
2022/08/05 05:08:56;;;;;;;8.82;2.55;;;;;;;;;;8417986;28;20023;-70
2022/08/05 05:12:57;;;;;;;4.15;2.60;;;;;;;;;;8410938;28;20028;-70
2022/08/05 05:17:00;;;;;;;4.22;2.40;;;;;;;;;;8415198;28;20027;-70
2022/08/05 05:21:00;;;;;;;2.47;2.28;;;;;;;;;;8413515;28;20935;-70
2022/08/05 05:25:01;;;;;;;3.75;2.10;;;;;;;;;;8416175;28;20731;-70
2022/08/05 05:29:01;;;;;;;7.70;2.20;;;;;;;;;;8416266;28;20023;-70
2022/08/05 05:33:02;;;;;;;2.58;2.38;;;;;;;;;;8412439;28;20096;-69
2022/08/05 05:37:03;;;;;;;3.97;2.15;;;;;;;;;;8415777;28;20051;-70
2022/08/05 05:41:03;;;;;;;3.00;2.17;;;;;;;;;;8412949;28;20035;-70
2022/08/05 05:45:03;;;;;;;2.30;2.10;;;;;;;;;;8390533;28;20821;-70
2022/08/05 05:49:03;;;;;;;3.28;2.00;;;;;;;;;;8413298;27;20023;-70
2022/08/05 05:53:04;;;;;;;3.35;1.90;;;;;;;;;;8412419;28;20029;-70
2022/08/05 05:57:04;;;;;;;2.38;2.00;;;;;;;;;;8413081;28;20030;-70
2022/08/05 06:01:04;;;;;;;3.05;2.00;;;;;;;;;;8412919;28;20133;-70
2022/08/05 06:05:08;;;;;;;3.83;2.15;;;;;;;;;;8413697;28;20183;-70
2022/08/05 06:09:08;;;;;;;2.42;2.22;;;;;;;;;;8414422;28;20016;-70
2022/08/05 06:13:08;;;;;;;4.70;2.67;;;;;;;;;;8413449;28;20027;-70
2022/08/05 06:17:09;;;;;;;4.57;2.42;;;;;;;;;;8410097;28;20035;-70
2022/08/05 06:21:09;;;;;;;2.85;2.42;;;;;;;;;;8410081;27;20047;-70
2022/08/05 06:25:12;;;;;;;6.10;2.65;;;;;;;;;;8411411;28;20876;-70
2022/08/05 06:29:12;;;;;;;3.40;2.60;;;;;;;;;;8409132;28;20594;-70
2022/08/05 06:33:12;;;;;;;3.45;2.13;;;;;;;;;;8411392;28;20054;-70
2022/08/05 06:37:12;;;;;;;5.78;2.38;;;;;;;;;;8412457;28;20424;-70
2022/08/05 06:41:12;;;;;;;2.28;1.77;;;;;;;;;;8410609;28;20412;-70
2022/08/05 06:45:12;;;;;;;5.00;2.17;;;;;;;;;;8410705;28;20046;-70
2022/08/05 06:49:13;;;;;;;3.88;2.25;;;;;;;;;;8410547;28;20028;-70
2022/08/05 06:53:13;;;;;;;4.65;2.13;;;;;;;;;;8411025;28;20020;-70
2022/08/05 06:57:15;;;;;;;4.43;2.40;;;;;;;;;;8412928;28;20799;-70
2022/08/05 07:01:15;;;;;;;2.38;1.92;;;;;;;;;;8410788;28;20040;-70
2022/08/05 07:05:15;;;;;;;4.10;2.20;;;;;;;;;;8412122;28;20204;-70
2022/08/05 07:09:15;;;;;;;1.92;1.80;;;;;;;;;;8409787;28;20027;-70
2022/08/05 07:17:35;;;;;;;4.35;2.30;;;;;;;;;;8411882;28;20043;-70
2022/08/05 07:21:35;;;;;;;2.65;2.00;;;;;;;;;;8410702;28;20024;-69
2022/08/05 07:25:35;;;;;;;2.87;2.40;;;;;;;;;;8410496;28;20162;-70
2022/08/05 07:29:35;;;;;;;2.53;1.90;;;;;;;;;;8411528;27;20024;-70
2022/08/05 07:33:36;;;;;;;2.40;1.80;;;;;;;;;;8407606;28;20063;-70
2022/08/05 07:37:36;;;;;;;2.47;1.83;;;;;;;;;;8410648;27;20027;-70
2022/08/05 07:41:36;;;;;;;2.85;1.90;;;;;;;;;;8409958;28;20108;-70
2022/08/05 07:45:36;;;;;;;2.03;1.83;;;;;;;;;;8407991;28;20051;-70
2022/08/05 07:49:37;;;;;;;3.03;2.20;;;;;;;;;;8413442;28;20269;-69
2022/08/05 07:53:37;;;;;;;4.13;2.20;;;;;;;;;;8408738;27;20678;-69
2022/08/05 07:57:37;;;;;;;3.88;1.90;;;;;;;;;;8409098;27;20058;-70
2022/08/05 08:01:37;;;;;;;3.25;2.42;;;;;;;;;;8409343;28;20044;-69
2022/08/05 08:05:38;;;;;;;5.82;2.17;;;;;;;;;;8410464;28;20078;-70
2022/08/05 08:09:38;;;;;;;2.47;1.80;;;;;;;;;;8408601;28;20445;-70
2022/08/05 08:13:39;;;;;;;6.40;2.50;;;;;;;;;;8407503;28;20377;-70
2022/08/05 08:17:39;;;;;;;4.57;2.40;;;;;;;;;;8408091;28;20124;-70
2022/08/05 08:21:41;;;;;;;5.85;2.42;;;;;;;;;;8407843;28;20035;-70
2022/08/05 08:25:41;;;;;;;4.75;2.42;;;;;;;;;;8408887;28;20127;-70
2022/08/05 08:29:41;;;;;;;4.45;2.97;;;;;;;;;;8389454;28;20070;-70
2022/08/05 08:33:41;;;;;;;6.28;2.58;;;;;;;;;;8406218;28;20036;-70
2022/08/05 08:37:42;;;;;;;4.82;2.67;;;;;;;;;;8406935;28;20519;-70
2022/08/05 08:41:48;;;;;;;4.90;2.13;;;;;;;;;;8407910;28;20039;-70
2022/08/05 08:45:51;;;;;;;3.03;2.20;;;;;;;;;;8408954;28;20043;-70
2022/08/05 08:49:56;;;;;;;2.70;1.95;;;;;;;;;;8409177;28;20024;-70
2022/08/05 08:53:56;;;;;;;3.55;2.10;;;;;;;;;;8408307;28;20037;-71
2022/08/05 08:57:57;;;;;;;3.00;1.98;;;;;;;;;;8407413;28;20331;-71
2022/08/05 09:01:58;;;;;;;3.65;2.17;;;;;;;;;;8405731;28;20040;-70
2022/08/05 09:05:58;;;;;;;4.30;2.25;;;;;;;;;;8407049;28;20118;-70
2022/08/05 09:09:58;;;;;;;4.28;2.60;;;;;;;;;;8406267;28;20024;-70
2022/08/05 09:13:59;;;;;;;3.17;2.30;;;;;;;;;;8409412;28;20385;-71
2022/08/05 09:17:59;;;;;;;3.40;2.40;;;;;;;;;;8407730;28;20036;-71
2022/08/05 09:22:00;;;;;;;3.28;2.30;;;;;;;;;;8408487;28;20024;-70
2022/08/05 09:26:06;;;;;;;3.35;2.08;;;;;;;;;;8409706;28;20023;-71
2022/08/05 09:30:07;;;;;;;4.05;2.15;;;;;;;;;;8406700;28;20024;-71
2022/08/05 09:34:09;;;;;;;3.28;2.10;;;;;;;;;;8409057;28;20032;-71
2022/08/05 09:38:10;;;;;;;2.78;1.80;;;;;;;;;;8409344;28;20027;-71
2022/08/05 09:42:10;;;;;;;2.33;1.92;;;;;;;;;;8413951;28;20027;-71
2022/08/05 09:46:25;;;;;;;3.47;1.97;;;;;;;;;;8414147;28;20059;-71
2022/08/05 09:50:35;;;;;;;5.10;1.90;;;;;;;;;;8412899;28;20269;-70
2022/08/05 09:54:35;;;;;;;2.28;2.08;;;;;;;;;;8414604;28;20132;-71
2022/08/05 09:58:35;;;;;;;2.33;1.77;;;;;;;;;;8414573;28;20024;-71
2022/08/05 10:02:37;;;;;;;3.67;2.03;;;;;;;;;;8414944;28;20081;-70
2022/08/05 10:06:41;;;;;;;2.88;1.80;;;;;;;;;;8413902;27;20020;-70
2022/08/05 10:10:44;;;;;;;2.10;1.90;;;;;;;;;;8416613;28;20084;-71
2022/08/05 10:14:44;;;;;;;;;;;;;;;;;;8413134;28;20027;-70
2022/08/05 10:18:44;;;;;;;2.25;1.58;;;;;;;;;;8408529;28;19921;-70
2022/08/05 10:22:44;;;;;;;3.10;2.03;;;;;;;;;;8413598;28;20571;-71
2022/08/05 10:26:46;;;;;;;2.80;1.90;;;;;;;;;;8412317;28;20024;-71
2022/08/05 10:30:46;;;;;;;2.08;1.65;;;;;;;;;;8410364;28;20100;-71
2022/08/05 10:34:47;;;;;;;3.27;1.87;;;;;;;;;;8413570;27;20908;-70
2022/08/05 10:38:47;;;;;;;2.22;2.00;;;;;;;;;;8411881;27;20321;-70
2022/08/05 10:42:50;;;;;;;2.42;1.95;;;;;;;;;;8410470;28;20126;-71
2022/08/05 10:46:50;;;;;;;;;;;;;;;;;;8413341;28;20976;-71
2022/08/05 10:51:01;;;;;;;3.20;2.00;;;;;;;;;;8411794;28;20046;-71
2022/08/05 10:55:03;;;;;;;1.92;1.60;;;;;;;;;;8394369;27;20031;-70
2022/08/05 10:59:05;;;;;;;2.23;1.70;;;;;;;;;;8409894;28;20062;-71
2022/08/05 11:03:06;;;;;;;2.17;1.80;;;;;;;;;;8408229;27;20700;-71
2022/08/05 11:07:07;;;;;;;3.58;1.80;;;;;;;;;;8411034;28;20027;-71
2022/08/05 11:11:30;;;;;;;3.85;1.83;;;;;;;;;;8406367;28;20073;-71
2022/08/05 11:15:37;;;;;;;;;;;;;;;;;;8409413;28;20080;-71
2022/08/05 11:19:43;;;;;;;2.90;1.90;;;;;;;;;;8411384;28;19922;-71
2022/08/05 11:23:54;;;;;;;2.10;1.90;;;;;;;;;;8411684;28;20039;-71
2022/08/05 11:27:54;;;;;;;2.03;1.77;;;;;;;;;;8401050;28;20019;-71
2022/08/05 11:32:15;;;;;;;1.65;1.55;;;;;;;;;;8409880;28;20046;-71
2022/08/05 11:36:17;;;;;;;1.73;1.63;;;;;;;;;;8408677;28;20106;-71
2022/08/05 11:40:17;;;;;;;4.40;1.98;;;;;;;;;;8411725;28;20096;-71
2022/08/05 11:44:19;;;;;;;2.42;1.80;;;;;;;;;;8409976;28;20494;-70
2022/08/05 11:48:19;;;;;;;1.77;1.65;;;;;;;;;;8409813;28;20028;-71
2022/08/05 11:52:23;;;;;;;3.70;2.15;;;;;;;;;;8409307;28;20019;-71
2022/08/05 11:56:23;;;;;;;2.20;2.00;;;;;;;;;;8409035;28;20035;-71
2022/08/05 12:00:25;;;;;;;1.95;1.80;;;;;;;;;;8408843;28;20035;-71
2022/08/05 12:04:26;;;;;;;2.80;1.85;;;;;;;;;;8409118;28;20337;-70
2022/08/05 12:08:26;;;;;;;2.95;1.98;;;;;;;;;;8408888;27;20025;-71
2022/08/05 12:12:28;;;;;;;1.90;1.63;;;;;;;;;;8409070;28;20027;-70
2022/08/05 12:16:30;;;;;;;2.13;1.90;;;;;;;;;;8409414;28;20553;-71
2022/08/05 12:20:32;;;;;;;2.28;1.80;;;;;;;;;;8410078;28;20086;-71
2022/08/05 12:24:32;;;;;;;2.17;2.00;;;;;;;;;;8409867;28;20484;-71
2022/08/05 12:28:36;;;;;;;3.10;1.90;;;;;;;;;;8410696;28;20027;-70
2022/08/05 12:32:44;;;;;;;2.00;1.80;;;;;;;;;;8405737;28;20112;-71
2022/08/05 12:36:45;;;;;;;1.70;1.60;;;;;;;;;;8409083;28;20045;-71
2022/08/05 12:40:46;;;;;;;2.00;1.80;;;;;;;;;;8407960;28;20031;-70
2022/08/05 12:44:46;;;;;;;2.20;1.70;;;;;;;;;;8409769;28;20085;-71
2022/08/05 12:48:54;;;;;;;1.80;1.70;;;;;;;;;;8406055;28;20188;-71
2022/08/05 12:52:58;;;;;;;1.77;1.67;;;;;;;;;;8408431;28;20019;-71
2022/08/05 12:56:59;;;;;;;3.10;1.92;;;;;;;;;;8408359;28;20415;-70
2022/08/05 13:00:59;;;;;;;2.38;1.70;;;;;;;;;;8409178;28;20035;-71
2022/08/05 13:05:04;;;;;;;2.70;1.98;;;;;;;;;;8408783;28;20469;-71
2022/08/05 13:09:05;;;;;;;2.30;2.10;;;;;;;;;;8410148;28;20084;-71
2022/08/05 13:13:05;;;;;;;2.20;1.88;;;;;;;;;;8410359;28;20027;-71
2022/08/05 13:17:10;;;;;;;2.22;1.88;;;;;;;;;;8415129;28;20722;-71
2022/08/05 13:21:10;;;;;;;2.13;1.85;;;;;;;;;;8413125;28;20027;-71
2022/08/05 13:25:13;;;;;;;2.00;1.90;;;;;;;;;;8397494;28;20024;-70
2022/08/05 13:29:13;;;;;;;3.05;2.00;;;;;;;;;;8415171;28;20061;-71
2022/08/05 13:33:13;;;;;;;2.30;2.10;;;;;;;;;;8413356;28;20559;-71
2022/08/05 13:37:14;;;;;;;2.13;1.92;;;;;;;;;;8414499;28;20127;-71
2022/08/05 13:41:15;;;;;;;3.97;2.00;;;;;;;;;;8415357;28;20039;-71
2022/08/05 13:45:18;;;;;;;3.03;2.25;;;;;;;;;;8414269;28;20172;-70
2022/08/05 13:49:18;;;;;;;3.08;2.33;;;;;;;;;;8412392;28;20024;-70
2022/08/05 13:53:18;;;;;;;3.38;2.20;;;;;;;;;;8412242;27;20541;-71
2022/08/05 13:57:19;;;;;;;4.78;2.17;;;;;;;;;;8410858;27;20138;-70
2022/08/05 14:01:19;;;;;;;2.00;1.90;;;;;;;;;;8410104;28;20158;-71
2022/08/05 14:05:19;;;;;;;2.20;2.00;;;;;;;;;;8413476;28;20097;-71
2022/08/05 14:09:20;;;;;;;2.00;1.90;;;;;;;;;;8415171;27;20132;-71
2022/08/05 14:13:20;;;;;;;4.55;4.00;;;;;;;;;;8411780;28;20345;-71
2022/08/05 14:17:24;;;;;;;5.70;5.15;;;;;;;;;;8414550;27;20040;-70
2022/08/05 14:21:24;;;;;;;7.35;5.90;;;;;;;;;;8414208;28;20042;-71
2022/08/05 14:25:25;;;;;;;7.50;6.43;;;;;;;;;;8413562;27;20027;-71
2022/08/05 14:29:25;;;;;;;8.70;7.78;;;;;;;;;;8392638;28;20023;-71
2022/08/05 14:33:26;;;;;;;7.80;6.60;;;;;;;;;;8408001;28;20472;-70
2022/08/05 14:37:26;;;;;;;8.25;7.35;;;;;;;;;;8411914;28;20027;-71
2022/08/05 14:41:26;;;;;;;8.07;7.28;;;;;;;;;;8412131;28;20038;-70
2022/08/05 14:45:27;;;;;;;8.75;7.85;;;;;;;;;;8409236;28;20522;-70
2022/08/05 14:49:27;;;;;;;9.02;8.13;;;;;;;;;;8413424;28;20023;-70
2022/08/05 14:53:27;;;;;;;8.57;7.72;;;;;;;;;;8411108;28;20104;-71
2022/08/05 14:57:27;;;;;;;9.65;8.70;;;;;;;;;;8411057;28;20032;-71
2022/08/05 15:01:27;;;;;;;10.65;9.65;;;;;;;;;;8408389;28;20886;-71
2022/08/05 15:05:28;;;;;;;10.82;9.73;;;;;;;;;;8411160;28;20059;-70
2022/08/05 15:09:28;;;;;;;10.05;9.05;;;;;;;;;;8412614;28;20883;-71
2022/08/05 15:13:28;;;;;;;10.07;8.95;;;;;;;;;;8410191;27;20035;-71
2022/08/05 15:17:28;;;;;;;10.07;9.00;;;;;;;;;;8411414;28;20077;-70
2022/08/05 15:21:28;;;;;;;9.23;8.43;;;;;;;;;;8407851;27;20081;-71
2022/08/05 15:25:28;;;;;;;8.60;7.50;;;;;;;;;;8413563;28;20030;-70
2022/08/05 15:29:29;;;;;;;6.32;5.72;;;;;;;;;;8411519;28;20487;-70
2022/08/05 15:33:29;;;;;;;5.65;5.15;;;;;;;;;;8383592;28;20116;-70
2022/08/05 15:37:29;;;;;;;4.15;3.55;;;;;;;;;;8408330;28;20027;-71
2022/08/05 15:41:29;;;;;;;5.95;3.88;;;;;;;;;;8409782;28;20454;-70
2022/08/05 15:45:29;;;;;;;3.70;3.40;;;;;;;;;;8407971;28;20046;-70
2022/08/05 15:49:29;;;;;;;4.18;3.30;;;;;;;;;;8407009;28;20396;-70
2022/08/05 15:53:30;;;;;;;3.30;2.92;;;;;;;;;;8408203;28;20594;-71
2022/08/05 15:57:30;;;;;;;5.70;2.90;;;;;;;;;;8409498;28;20027;-71
2022/08/05 16:01:30;;;;;;;2.95;2.72;;;;;;;;;;8408199;28;20446;-70
2022/08/05 16:05:30;;;;;;;3.20;2.90;;;;;;;;;;8410662;28;20028;-70
2022/08/05 16:09:31;;;;;;;3.42;2.75;;;;;;;;;;8410863;28;20717;-71
2022/08/05 16:13:31;;;;;;;2.40;2.20;;;;;;;;;;8409024;28;20035;-70
2022/08/05 16:17:31;;;;;;;3.10;2.30;;;;;;;;;;8409225;28;20031;-70
2022/08/05 16:21:31;;;;;;;2.83;2.03;;;;;;;;;;8408668;27;20027;-71
2022/08/05 16:25:31;;;;;;;2.13;1.90;;;;;;;;;;8410613;28;20031;-70
2022/08/05 16:29:32;;;;;;;2.83;2.00;;;;;;;;;;8408806;28;20066;-70
2022/08/05 16:33:34;;;;;;;4.00;2.00;;;;;;;;;;8408032;28;20412;-70
2022/08/05 16:37:36;;;;;;;2.55;1.77;;;;;;;;;;8408082;28;20019;-71
2022/08/05 16:41:39;;;;;;;4.63;1.70;;;;;;;;;;8409685;28;20094;-70
2022/08/05 16:45:40;;;;;;;4.40;1.80;;;;;;;;;;8408849;28;20638;-71
2022/08/05 16:49:40;;;;;;;2.60;1.65;;;;;;;;;;8418869;27;20441;-70
2022/08/05 16:53:41;;;;;;;4.05;1.48;;;;;;;;;;8418991;27;20003;-71
2022/08/05 16:57:41;;;;;;;1.88;1.35;;;;;;;;;;8418923;27;20466;-70
2022/08/05 17:01:41;;;;;;;2.33;1.42;;;;;;;;;;8419668;27;20758;-71
2022/08/05 17:05:41;;;;;;;2.05;1.50;;;;;;;;;;8420221;27;20069;-70
2022/08/05 17:09:41;;;;;;;1.60;1.17;;;;;;;;;;8422109;27;20031;-70
2022/08/05 17:13:42;;;;;;;3.38;1.50;;;;;;;;;;8420041;27;20132;-71
2022/08/05 17:17:43;;;;;;;2.97;1.30;;;;;;;;;;8417708;27;20551;-70
2022/08/05 17:21:43;;;;;;;4.35;1.30;;;;;;;;;;8417851;27;20452;-70
2022/08/05 17:25:43;;;;;;;1.63;1.17;;;;;;;;;;8421532;27;20053;-70
2022/08/05 17:29:43;;;;;;;2.23;1.30;;;;;;;;;;8419265;27;20323;-70
2022/08/05 17:33:45;;;;;;;1.77;1.20;;;;;;;;;;8417904;27;20506;-71
2022/08/05 17:37:45;;;;;;;2.05;1.02;;;;;;;;;;8418666;27;20059;-70
2022/08/05 17:41:45;;;;;;;3.45;1.20;;;;;;;;;;8419107;27;20838;-70
2022/08/05 17:45:45;;;;;;;2.38;1.30;;;;;;;;;;8418501;27;20146;-71
2022/08/05 17:49:45;;;;;;;2.28;1.17;;;;;;;;;;8419035;27;20714;-71
2022/08/05 17:53:46;;;;;;;2.28;1.15;;;;;;;;;;8418099;27;20590;-71
2022/08/05 17:57:46;;;;;;;2.70;1.38;;;;;;;;;;8418242;27;20027;-70
2022/08/05 18:01:46;;;;;;;1.63;1.10;;;;;;;;;;8411505;27;20484;-70
2022/08/05 18:05:46;;;;;;;3.45;1.25;;;;;;;;;;8413136;28;20104;-71
2022/08/05 18:09:46;;;;;;;1.30;1.02;;;;;;;;;;8413498;28;20055;-71
2022/08/05 18:13:46;;;;;;;1.50;1.10;;;;;;;;;;8409280;28;20075;-71
2022/08/05 18:17:47;;;;;;;1.80;1.23;;;;;;;;;;8412481;28;20058;-71
2022/08/05 18:21:47;;;;;;;4.18;1.25;;;;;;;;;;8411801;28;20031;-71
2022/08/05 18:25:48;;;;;;;1.43;1.10;;;;;;;;;;8400807;27;20019;-70
2022/08/05 18:29:48;;;;;;;1.67;1.15;;;;;;;;;;8413504;28;20019;-71
2022/08/05 18:33:48;;;;;;;2.38;1.00;;;;;;;;;;8409915;28;20047;-71
2022/08/05 18:37:48;;;;;;;1.48;1.00;;;;;;;;;;8409835;28;20028;-71
2022/08/05 18:41:50;;;;;;;2.20;1.00;;;;;;;;;;8414000;27;20399;-71
2022/08/05 18:45:50;;;;;;;1.20;1.10;;;;;;;;;;8409950;28;20742;-71
2022/08/05 18:54:09;;;;;;;2.83;1.30;;;;;;;;;;8411573;28;20027;-71
2022/08/05 18:58:09;;;;;;;2.63;1.35;;;;;;;;;;8411596;27;20015;-70
2022/08/05 19:02:09;;;;;;;4.72;1.30;;;;;;;;;;8409337;28;20415;-70
2022/08/05 19:06:09;;;;;;;3.47;1.30;;;;;;;;;;8410612;27;20138;-70
2022/08/05 19:10:09;;;;;;;1.70;1.38;;;;;;;;;;8409399;27;20080;-70
2022/08/05 19:14:10;;;;;;;3.17;1.63;;;;;;;;;;8413353;28;20579;-70
2022/08/05 19:18:12;;;;;;;3.22;1.38;;;;;;;;;;8409519;28;20050;-70
2022/08/05 19:22:12;;;;;;;5.07;1.20;;;;;;;;;;8410804;28;20078;-70
2022/08/05 19:26:13;;;;;;;2.27;1.10;;;;;;;;;;8389770;28;20032;-70
2022/08/05 19:30:13;;;;;;;1.40;1.20;;;;;;;;;;8408312;28;20047;-70
2022/08/05 19:34:14;;;;;;;2.03;1.30;;;;;;;;;;8409088;28;20107;-71
2022/08/05 19:38:14;;;;;;;1.38;1.30;;;;;;;;;;8410071;28;20494;-71
2022/08/05 19:42:14;;;;;;;2.80;1.60;;;;;;;;;;8412093;27;20019;-71
2022/08/05 19:46:14;;;;;;;3.30;1.40;;;;;;;;;;8410636;28;20125;-71
2022/08/05 19:50:14;;;;;;;2.85;1.60;;;;;;;;;;8408733;27;20084;-71
2022/08/05 19:54:15;;;;;;;4.50;1.50;;;;;;;;;;8410251;28;20650;-70
2022/08/05 19:58:16;;;;;;;1.98;1.60;;;;;;;;;;8391580;28;20028;-70
2022/08/05 20:02:16;;;;;;;2.40;1.50;;;;;;;;;;8406932;28;20118;-70
2022/08/05 20:06:16;;;;;;;2.72;1.63;;;;;;;;;;8409012;28;20457;-70
2022/08/05 20:10:17;;;;;;;3.08;1.70;;;;;;;;;;8409978;28;20043;-70
2022/08/05 20:14:18;;;;;;;3.38;1.60;;;;;;;;;;8406514;28;20024;-71
2022/08/05 20:18:18;;;;;;;2.30;1.60;;;;;;;;;;8407920;28;20032;-70
2022/08/05 20:22:19;;;;;;;3.25;1.80;;;;;;;;;;8408650;28;20020;-71
2022/08/05 20:26:25;;;;;;;3.30;1.60;;;;;;;;;;8410685;28;20064;-70
2022/08/05 20:30:26;;;;;;;3.00;1.70;;;;;;;;;;8386192;28;20032;-71
2022/08/05 20:34:26;;;;;;;4.85;2.03;;;;;;;;;;8408710;28;20313;-70
2022/08/05 20:38:27;;;;;;;2.60;1.73;;;;;;;;;;8408321;28;20803;-70
2022/08/05 20:42:27;;;;;;;3.67;1.70;;;;;;;;;;8405772;28;20026;-70
2022/08/05 20:46:27;;;;;;;1.67;1.58;;;;;;;;;;8407745;28;20039;-70
2022/08/05 20:50:27;;;;;;;1.57;1.47;;;;;;;;;;8405607;28;20046;-71
2022/08/05 20:54:28;;;;;;;2.92;1.95;;;;;;;;;;8407779;28;20020;-70
2022/08/05 20:58:29;;;;;;;3.65;1.75;;;;;;;;;;8406927;28;20073;-70
2022/08/05 21:02:29;;;;;;;3.97;2.00;;;;;;;;;;8409850;28;20040;-70
2022/08/05 21:06:29;;;;;;;3.90;1.90;;;;;;;;;;8409610;28;20023;-70
2022/08/05 21:10:29;;;;;;;1.58;1.42;;;;;;;;;;8407672;28;20896;-70
2022/08/05 21:14:29;;;;;;;1.97;1.43;;;;;;;;;;8407631;28;20081;-70
2022/08/05 21:18:30;;;;;;;2.95;1.65;;;;;;;;;;8407249;28;20035;-70
2022/08/05 21:22:30;;;;;;;2.83;1.80;;;;;;;;;;8405727;28;20039;-70
2022/08/05 21:26:30;;;;;;;2.80;1.75;;;;;;;;;;8408790;28;20032;-70
2022/08/05 21:30:31;;;;;;;4.00;1.80;;;;;;;;;;8407088;28;20039;-71
2022/08/05 21:34:31;;;;;;;2.20;1.52;;;;;;;;;;8411256;28;20509;-70
2022/08/05 21:38:31;;;;;;;2.78;1.80;;;;;;;;;;8412493;28;20560;-70
2022/08/05 21:42:31;;;;;;;2.25;1.70;;;;;;;;;;8413406;28;20028;-71
2022/08/05 21:46:32;;;;;;;2.37;1.97;;;;;;;;;;8393784;28;20098;-70
2022/08/05 21:50:32;;;;;;;2.70;1.80;;;;;;;;;;8411542;27;20039;-70
2022/08/05 21:54:32;;;;;;;3.80;1.63;;;;;;;;;;8413767;28;20295;-70
2022/08/05 21:58:32;;;;;;;3.00;1.40;;;;;;;;;;8414331;28;20019;-70
2022/08/05 22:02:32;;;;;;;2.35;1.55;;;;;;;;;;8409882;28;20028;-70
2022/08/05 22:06:33;;;;;;;2.47;1.50;;;;;;;;;;8413022;27;20110;-70
2022/08/05 22:10:33;;;;;;;1.83;1.50;;;;;;;;;;8410509;28;20047;-71
2022/08/05 22:14:33;;;;;;;3.13;1.33;;;;;;;;;;8409226;28;20034;-71
2022/08/05 22:18:34;;;;;;;1.88;1.40;;;;;;;;;;8411149;27;20508;-70
2022/08/05 22:27:41;;;;;;;2.35;1.20;;;;;;;;;;8409923;27;20135;-70
2022/08/05 22:31:13;;;;;;;3.83;1.38;;;;;;;;;;8412178;28;20704;-71
2022/08/05 22:35:13;;;;;;;1.83;1.17;;;;;;;;;;8412239;28;20020;-71
2022/08/05 22:39:18;;;;;;;1.70;1.20;;;;;;;;;;8413298;28;20545;-70
2022/08/05 22:43:18;;;;;;;6.80;1.50;;;;;;;;;;8409575;28;20023;-71
2022/08/05 22:47:18;;;;;;;2.83;1.30;;;;;;;;;;8410249;28;20040;-71
2022/08/05 22:51:19;;;;;;;1.13;1.10;;;;;;;;;;8410968;28;20031;-71
2022/08/05 22:55:19;;;;;;;1.75;1.17;;;;;;;;;;8412567;28;20038;-71
2022/08/05 22:59:20;;;;;;;2.60;1.10;;;;;;;;;;8412887;27;20031;-70
2022/08/05 23:03:20;;;;;;;3.53;1.20;;;;;;;;;;8412688;28;20063;-71
2022/08/05 23:07:20;;;;;;;1.65;1.20;;;;;;;;;;8413488;28;20673;-71
2022/08/05 23:11:20;;;;;;;1.67;1.10;;;;;;;;;;8410779;28;20356;-70
2022/08/05 23:15:24;;;;;;;2.43;1.10;;;;;;;;;;8413457;28;20322;-71
2022/08/05 23:19:24;;;;;;;1.63;1.10;;;;;;;;;;8409899;28;20277;-70
2022/08/05 23:23:25;;;;;;;2.55;1.10;;;;;;;;;;8391796;28;20035;-71
2022/08/05 23:27:25;;;;;;;2.28;1.10;;;;;;;;;;8410424;28;20053;-70
2022/08/05 23:31:25;;;;;;;1.97;1.20;;;;;;;;;;8411502;28;20484;-71
2022/08/05 23:35:25;;;;;;;2.83;1.10;;;;;;;;;;8411057;27;20302;-70
2022/08/05 23:39:25;;;;;;;4.75;1.20;;;;;;;;;;8408844;28;20055;-71
2022/08/05 23:43:26;;;;;;;1.20;1.00;;;;;;;;;;8409100;28;20027;-71
2022/08/05 23:47:26;;;;;;;1.30;1.00;;;;;;;;;;8412057;28;20059;-71
2022/08/05 23:51:26;;;;;;;1.08;0.98;;;;;;;;;;8407878;28;20027;-71
2022/08/05 23:55:26;;;;;;;1.27;1.10;;;;;;;;;;8389227;28;20499;-71
2022/08/05 23:59:27;;;;;;;2.53;1.20;;;;;;;;;;8409153;28;20108;-71
